Dawson, Canada
Current Conditions -  °F | °C
As of 3:00 PM on Thursday 18 Dec 2014 (Local Time) from CYDA Reporting Station
Light Snow Light Snow  
Wind Chill:   Ceiling: 1400
Heat Index:   Visibility: 2mi
Dew Point:   Wind: 5mph
Humidity: 92%   Direction: 230°SW
Pressure: 29.76"   Gusts: NA
Location:  64.05°N, 139.13°W
Report Text: CYDA 182300Z 23004KT 2SM -SN VV014 M13/M14 A2976 RMK FG8 PCPN LGT SLP112
Loading
Personal Weather Stations






























Interactive Weather Map New forecast layout! Learn more

10-Day Weather Forecast

Advertisements
Track Severe Weather on mobile